sensor_id;sensor_type;location;lat;lon;timestamp;temperature;humidity
24800;DHT22;12897;50.812;4.430;2022-08-11T00:00:04;20.70;99.90
24800;DHT22;12897;50.812;4.430;2022-08-11T00:02:42;20.70;99.90
24800;DHT22;12897;50.812;4.430;2022-08-11T00:05:13;20.70;99.90
24800;DHT22;12897;50.812;4.430;2022-08-11T00:10:14;20.50;99.90
24800;DHT22;12897;50.812;4.430;2022-08-11T00:12:43;20.50;99.90
24800;DHT22;12897;50.812;4.430;2022-08-11T00:15:12;20.40;99.90
24800;DHT22;12897;50.812;4.430;2022-08-11T00:17:40;20.20;99.90
24800;DHT22;12897;50.812;4.430;2022-08-11T00:20:13;20.20;99.90
24800;DHT22;12897;50.812;4.430;2022-08-11T00:22:43;20.20;99.90
24800;DHT22;12897;50.812;4.430;2022-08-11T00:25:18;20.20;99.90
24800;DHT22;12897;50.812;4.430;2022-08-11T00:27:46;20.10;99.90
24800;DHT22;12897;50.812;4.430;2022-08-11T00:30:15;20.00;99.90
24800;DHT22;12897;50.812;4.430;2022-08-11T00:32:51;19.90;99.90
24800;DHT22;12897;50.812;4.430;2022-08-11T00:35:15;19.80;99.90
24800;DHT22;12897;50.812;4.430;2022-08-11T00:37:51;19.80;99.90
24800;DHT22;12897;50.812;4.430;2022-08-11T00:40:32;19.80;99.90
24800;DHT22;12897;50.812;4.430;2022-08-11T00:43:21;19.70;99.90
24800;DHT22;12897;50.812;4.430;2022-08-11T00:48:58;19.70;99.90
24800;DHT22;12897;50.812;4.430;2022-08-11T00:57:36;19.50;99.90
24800;DHT22;12897;50.812;4.430;2022-08-11T01:00:19;19.60;99.90
24800;DHT22;12897;50.812;4.430;2022-08-11T01:05:55;19.40;99.90
24800;DHT22;12897;50.812;4.430;2022-08-11T01:08:29;19.40;99.90
24800;DHT22;12897;50.812;4.430;2022-08-11T01:11:04;19.20;99.90
24800;DHT22;12897;50.812;4.430;2022-08-11T01:13:57;19.10;99.90
24800;DHT22;12897;50.812;4.430;2022-08-11T01:20:23;19.10;99.90
24800;DHT22;12897;50.812;4.430;2022-08-11T01:43:01;18.80;99.90
24800;DHT22;12897;50.812;4.430;2022-08-11T01:54:25;18.60;99.90
24800;DHT22;12897;50.812;4.430;2022-08-11T02:00:26;18.70;99.90
24800;DHT22;12897;50.812;4.430;2022-08-11T02:08:07;18.50;99.90
24800;DHT22;12897;50.812;4.430;2022-08-11T02:13:50;18.40;99.90
24800;DHT22;12897;50.812;4.430;2022-08-11T02:16:58;18.30;99.90
24800;DHT22;12897;50.812;4.430;2022-08-11T02:25:36;18.30;99.90
24800;DHT22;12897;50.812;4.430;2022-08-11T02:30:57;18.40;99.90
24800;DHT22;12897;50.812;4.430;2022-08-11T02:33:24;18.40;99.90
24800;DHT22;12897;50.812;4.430;2022-08-11T02:36:05;18.20;99.90
24800;DHT22;12897;50.812;4.430;2022-08-11T02:50:05;18.00;99.90
24800;DHT22;12897;50.812;4.430;2022-08-11T02:55:22;18.00;99.90
24800;DHT22;12897;50.812;4.430;2022-08-11T02:58:02;18.00;99.90
24800;DHT22;12897;50.812;4.430;2022-08-11T03:00:33;17.80;99.90
24800;DHT22;12897;50.812;4.430;2022-08-11T03:03:09;17.80;99.90
24800;DHT22;12897;50.812;4.430;2022-08-11T03:08:23;17.80;99.90
24800;DHT22;12897;50.812;4.430;2022-08-11T03:20:05;17.60;99.90
24800;DHT22;12897;50.812;4.430;2022-08-11T03:28:03;17.50;99.90
24800;DHT22;12897;50.812;4.430;2022-08-11T03:33:24;17.60;99.90
24800;DHT22;12897;50.812;4.430;2022-08-11T03:36:32;17.50;99.90
24800;DHT22;12897;50.812;4.430;2022-08-11T03:45:14;17.70;99.90
24800;DHT22;12897;50.812;4.430;2022-08-11T03:53:22;17.50;99.90
24800;DHT22;12897;50.812;4.430;2022-08-11T04:02:00;17.30;99.90
24800;DHT22;12897;50.812;4.430;2022-08-11T04:35:12;17.30;99.90
24800;DHT22;12897;50.812;4.430;2022-08-11T04:41:10;17.10;99.90
24800;DHT22;12897;50.812;4.430;2022-08-11T04:52:55;17.00;99.90
24800;DHT22;12897;50.812;4.430;2022-08-11T05:04:56;17.20;99.90
24800;DHT22;12897;50.812;4.430;2022-08-11T05:08:09;17.20;99.90
24800;DHT22;12897;50.812;4.430;2022-08-11T05:13:36;17.40;99.90
24800;DHT22;12897;50.812;4.430;2022-08-11T05:16:27;17.40;99.90
24800;DHT22;12897;50.812;4.430;2022-08-11T05:19:18;17.40;99.90
24800;DHT22;12897;50.812;4.430;2022-08-11T05:22:07;17.40;99.90
24800;DHT22;12897;50.812;4.430;2022-08-11T05:25:00;17.50;99.90
24800;DHT22;12897;50.812;4.430;2022-08-11T05:30:59;17.80;99.90
24800;DHT22;12897;50.812;4.430;2022-08-11T05:33:53;17.90;99.90
24800;DHT22;12897;50.812;4.430;2022-08-11T05:39:47;18.10;99.90
24800;DHT22;12897;50.812;4.430;2022-08-11T05:42:28;18.40;99.90
24800;DHT22;12897;50.812;4.430;2022-08-11T05:45:16;19.00;99.90
24800;DHT22;12897;50.812;4.430;2022-08-11T05:48:03;19.70;99.90
24800;DHT22;12897;50.812;4.430;2022-08-11T05:50:57;20.10;99.90
24800;DHT22;12897;50.812;4.430;2022-08-11T05:53:57;20.60;99.90
24800;DHT22;12897;50.812;4.430;2022-08-11T05:56:43;21.10;99.90
24800;DHT22;12897;50.812;4.430;2022-08-11T05:59:14;21.60;99.90
24800;DHT22;12897;50.812;4.430;2022-08-11T06:01:43;21.90;99.90
24800;DHT22;12897;50.812;4.430;2022-08-11T06:04:21;22.30;99.90
24800;DHT22;12897;50.812;4.430;2022-08-11T06:06:52;22.60;99.90
24800;DHT22;12897;50.812;4.430;2022-08-11T06:09:34;22.90;99.90
24800;DHT22;12897;50.812;4.430;2022-08-11T06:12:05;23.20;99.90
24800;DHT22;12897;50.812;4.430;2022-08-11T06:14:40;23.40;99.90
24800;DHT22;12897;50.812;4.430;2022-08-11T06:17:03;23.40;99.90
24800;DHT22;12897;50.812;4.430;2022-08-11T06:19:34;23.50;99.90
24800;DHT22;12897;50.812;4.430;2022-08-11T06:22:03;23.70;99.90
24800;DHT22;12897;50.812;4.430;2022-08-11T06:24:33;23.60;99.90
24800;DHT22;12897;50.812;4.430;2022-08-11T06:27:03;23.80;99.90
24800;DHT22;12897;50.812;4.430;2022-08-11T06:29:43;23.80;99.90
24800;DHT22;12897;50.812;4.430;2022-08-11T06:32:04;23.80;99.90
24800;DHT22;12897;50.812;4.430;2022-08-11T06:34:54;23.80;99.90
24800;DHT22;12897;50.812;4.430;2022-08-11T06:37:15;23.80;99.90
24800;DHT22;12897;50.812;4.430;2022-08-11T06:46:02;23.80;99.90
24800;DHT22;12897;50.812;4.430;2022-08-11T06:48:31;23.90;99.90
24800;DHT22;12897;50.812;4.430;2022-08-11T06:51:01;24.00;99.90
24800;DHT22;12897;50.812;4.430;2022-08-11T06:53:51;24.10;99.90
24800;DHT22;12897;50.812;4.430;2022-08-11T06:56:25;24.10;99.90
24800;DHT22;12897;50.812;4.430;2022-08-11T06:59:11;24.10;99.90
24800;DHT22;12897;50.812;4.430;2022-08-11T07:02:19;24.10;99.90
24800;DHT22;12897;50.812;4.430;2022-08-11T07:04:58;24.20;99.90
24800;DHT22;12897;50.812;4.430;2022-08-11T07:13:34;23.70;99.90
24800;DHT22;12897;50.812;4.430;2022-08-11T07:16:25;23.60;99.90
24800;DHT22;12897;50.812;4.430;2022-08-11T07:18:51;23.60;99.90
24800;DHT22;12897;50.812;4.430;2022-08-11T07:21:40;23.70;99.90
24800;DHT22;12897;50.812;4.430;2022-08-11T07:25:00;23.80;99.90
24800;DHT22;12897;50.812;4.430;2022-08-11T07:27:57;23.90;99.90
24800;DHT22;12897;50.812;4.430;2022-08-11T07:30:42;24.00;99.90
24800;DHT22;12897;50.812;4.430;2022-08-11T07:33:12;24.10;99.90
24800;DHT22;12897;50.812;4.430;2022-08-11T07:35:47;24.30;99.90
24800;DHT22;12897;50.812;4.430;2022-08-11T07:38:25;24.30;99.90
24800;DHT22;12897;50.812;4.430;2022-08-11T07:40:57;24.30;99.90
24800;DHT22;12897;50.812;4.430;2022-08-11T07:43:25;24.50;99.90
24800;DHT22;12897;50.812;4.430;2022-08-11T07:45:55;24.60;99.90
24800;DHT22;12897;50.812;4.430;2022-08-11T07:48:42;24.60;99.90
24800;DHT22;12897;50.812;4.430;2022-08-11T07:51:27;24.70;99.90
24800;DHT22;12897;50.812;4.430;2022-08-11T07:54:13;24.80;99.90
24800;DHT22;12897;50.812;4.430;2022-08-11T07:56:41;24.80;99.90
24800;DHT22;12897;50.812;4.430;2022-08-11T07:59:09;24.70;99.90
24800;DHT22;12897;50.812;4.430;2022-08-11T08:01:56;24.70;99.90
24800;DHT22;12897;50.812;4.430;2022-08-11T08:04:42;24.80;99.90
24800;DHT22;12897;50.812;4.430;2022-08-11T08:07:29;24.80;99.90
24800;DHT22;12897;50.812;4.430;2022-08-11T08:10:17;24.80;99.90
24800;DHT22;12897;50.812;4.430;2022-08-11T08:13:05;25.00;99.90
24800;DHT22;12897;50.812;4.430;2022-08-11T08:15:52;25.00;99.90
24800;DHT22;12897;50.812;4.430;2022-08-11T08:18:38;25.00;99.90
24800;DHT22;12897;50.812;4.430;2022-08-11T08:21:07;25.10;99.90
24800;DHT22;12897;50.812;4.430;2022-08-11T08:23:44;25.00;99.90
24800;DHT22;12897;50.812;4.430;2022-08-11T08:26:11;25.20;99.90
24800;DHT22;12897;50.812;4.430;2022-08-11T08:29:02;25.10;99.90
24800;DHT22;12897;50.812;4.430;2022-08-11T08:31:49;25.30;99.90
24800;DHT22;12897;50.812;4.430;2022-08-11T08:34:18;25.50;99.90
24800;DHT22;12897;50.812;4.430;2022-08-11T08:39:34;25.40;99.90
24800;DHT22;12897;50.812;4.430;2022-08-11T08:42:11;25.50;99.90
24800;DHT22;12897;50.812;4.430;2022-08-11T08:44:44;25.70;99.90
24800;DHT22;12897;50.812;4.430;2022-08-11T08:47:17;25.80;99.90
24800;DHT22;12897;50.812;4.430;2022-08-11T08:49:50;25.80;99.90
24800;DHT22;12897;50.812;4.430;2022-08-11T08:52:21;25.60;99.90
24800;DHT22;12897;50.812;4.430;2022-08-11T08:54:53;25.60;99.90
24800;DHT22;12897;50.812;4.430;2022-08-11T08:57:21;25.80;99.90
24800;DHT22;12897;50.812;4.430;2022-08-11T08:59:50;25.80;99.90
24800;DHT22;12897;50.812;4.430;2022-08-11T09:02:22;25.90;99.90
24800;DHT22;12897;50.812;4.430;2022-08-11T09:04:49;26.10;98.90
24800;DHT22;12897;50.812;4.430;2022-08-11T09:07:20;26.40;98.80
24800;DHT22;12897;50.812;4.430;2022-08-11T09:09:50;26.50;97.10
24800;DHT22;12897;50.812;4.430;2022-08-11T09:12:20;26.60;95.70
24800;DHT22;12897;50.812;4.430;2022-08-11T09:14:49;26.70;95.20
24800;DHT22;12897;50.812;4.430;2022-08-11T09:17:30;26.80;93.90
24800;DHT22;12897;50.812;4.430;2022-08-11T09:20:10;26.80;93.60
24800;DHT22;12897;50.812;4.430;2022-08-11T09:22:40;26.90;94.20
24800;DHT22;12897;50.812;4.430;2022-08-11T09:25:29;26.80;93.30
24800;DHT22;12897;50.812;4.430;2022-08-11T09:28:16;26.80;91.40
24800;DHT22;12897;50.812;4.430;2022-08-11T09:30:47;26.80;92.00
24800;DHT22;12897;50.812;4.430;2022-08-11T09:33:17;26.70;90.40
24800;DHT22;12897;50.812;4.430;2022-08-11T09:35:46;26.80;90.50
24800;DHT22;12897;50.812;4.430;2022-08-11T09:38:17;27.10;90.30
24800;DHT22;12897;50.812;4.430;2022-08-11T09:41:06;27.20;87.10
24800;DHT22;12897;50.812;4.430;2022-08-11T09:43:42;27.30;84.90
24800;DHT22;12897;50.812;4.430;2022-08-11T09:46:28;27.20;83.10
24800;DHT22;12897;50.812;4.430;2022-08-11T09:49:00;27.10;83.40
24800;DHT22;12897;50.812;4.430;2022-08-11T09:51:30;27.10;83.40
24800;DHT22;12897;50.812;4.430;2022-08-11T09:54:02;27.20;82.20
24800;DHT22;12897;50.812;4.430;2022-08-11T09:56:33;27.30;82.60
24800;DHT22;12897;50.812;4.430;2022-08-11T09:59:20;27.30;82.90
24800;DHT22;12897;50.812;4.430;2022-08-11T10:01:57;27.10;82.90
24800;DHT22;12897;50.812;4.430;2022-08-11T10:04:42;27.20;82.70
24800;DHT22;12897;50.812;4.430;2022-08-11T10:07:15;27.50;80.40
24800;DHT22;12897;50.812;4.430;2022-08-11T10:09:48;27.60;78.70
24800;DHT22;12897;50.812;4.430;2022-08-11T10:12:32;27.80;77.50
24800;DHT22;12897;50.812;4.430;2022-08-11T10:15:03;27.90;76.30
24800;DHT22;12897;50.812;4.430;2022-08-11T10:17:56;27.90;77.30
24800;DHT22;12897;50.812;4.430;2022-08-11T10:20:39;27.80;77.50
24800;DHT22;12897;50.812;4.430;2022-08-11T10:23:07;27.50;77.50
24800;DHT22;12897;50.812;4.430;2022-08-11T10:25:54;27.50;77.40
24800;DHT22;12897;50.812;4.430;2022-08-11T10:28:41;27.70;77.30
24800;DHT22;12897;50.812;4.430;2022-08-11T10:31:09;27.80;75.50
24800;DHT22;12897;50.812;4.430;2022-08-11T10:33:56;28.00;72.40
24800;DHT22;12897;50.812;4.430;2022-08-11T10:36:28;28.10;70.50
24800;DHT22;12897;50.812;4.430;2022-08-11T10:38:57;28.20;71.30
24800;DHT22;12897;50.812;4.430;2022-08-11T10:41:27;28.20;72.60
24800;DHT22;12897;50.812;4.430;2022-08-11T10:44:13;28.30;73.00
24800;DHT22;12897;50.812;4.430;2022-08-11T10:46:41;28.40;74.50
24800;DHT22;12897;50.812;4.430;2022-08-11T10:49:27;28.20;72.40
24800;DHT22;12897;50.812;4.430;2022-08-11T10:51:56;28.30;69.30
24800;DHT22;12897;50.812;4.430;2022-08-11T10:54:42;28.30;69.20
24800;DHT22;12897;50.812;4.430;2022-08-11T10:57:29;28.30;69.20
24800;DHT22;12897;50.812;4.430;2022-08-11T11:00:15;28.30;68.30
24800;DHT22;12897;50.812;4.430;2022-08-11T11:02:44;28.40;67.80
24800;DHT22;12897;50.812;4.430;2022-08-11T11:05:24;28.30;70.80
24800;DHT22;12897;50.812;4.430;2022-08-11T11:07:55;28.50;66.60
24800;DHT22;12897;50.812;4.430;2022-08-11T11:10:23;28.50;67.80
24800;DHT22;12897;50.812;4.430;2022-08-11T11:12:53;28.60;67.20
24800;DHT22;12897;50.812;4.430;2022-08-11T11:15:41;28.80;67.10
24800;DHT22;12897;50.812;4.430;2022-08-11T11:18:30;28.70;65.90
24800;DHT22;12897;50.812;4.430;2022-08-11T11:21:03;28.70;66.60
24800;DHT22;12897;50.812;4.430;2022-08-11T11:37:38;29.00;63.60
24800;DHT22;12897;50.812;4.430;2022-08-11T11:40:12;29.20;62.70
24800;DHT22;12897;50.812;4.430;2022-08-11T11:42:41;29.30;62.60
24800;DHT22;12897;50.812;4.430;2022-08-11T11:45:11;29.40;62.10
24800;DHT22;12897;50.812;4.430;2022-08-11T11:47:40;29.20;62.10
24800;DHT22;12897;50.812;4.430;2022-08-11T11:50:11;29.10;63.40
24800;DHT22;12897;50.812;4.430;2022-08-11T11:52:40;29.00;63.00
24800;DHT22;12897;50.812;4.430;2022-08-11T11:55:09;29.10;61.20
24800;DHT22;12897;50.812;4.430;2022-08-11T11:57:37;29.30;59.30
24800;DHT22;12897;50.812;4.430;2022-08-11T12:00:23;29.50;58.00
24800;DHT22;12897;50.812;4.430;2022-08-11T12:03:10;29.50;57.60
24800;DHT22;12897;50.812;4.430;2022-08-11T12:05:38;29.50;57.80
24800;DHT22;12897;50.812;4.430;2022-08-11T12:08:07;29.60;58.60
24800;DHT22;12897;50.812;4.430;2022-08-11T12:10:39;29.60;57.90
24800;DHT22;12897;50.812;4.430;2022-08-11T12:13:14;29.60;57.20
24800;DHT22;12897;50.812;4.430;2022-08-11T12:16:00;29.50;57.00
24800;DHT22;12897;50.812;4.430;2022-08-11T12:18:33;29.10;57.70
24800;DHT22;12897;50.812;4.430;2022-08-11T12:21:02;29.00;57.60
24800;DHT22;12897;50.812;4.430;2022-08-11T12:23:33;29.20;58.20
24800;DHT22;12897;50.812;4.430;2022-08-11T12:26:19;29.50;57.60
24800;DHT22;12897;50.812;4.430;2022-08-11T12:29:09;29.70;57.20
24800;DHT22;12897;50.812;4.430;2022-08-11T12:31:38;29.70;57.80
24800;DHT22;12897;50.812;4.430;2022-08-11T12:34:08;29.60;58.70
24800;DHT22;12897;50.812;4.430;2022-08-11T12:36:42;29.50;57.80
24800;DHT22;12897;50.812;4.430;2022-08-11T12:39:12;29.50;57.30
24800;DHT22;12897;50.812;4.430;2022-08-11T12:41:41;29.60;55.40
24800;DHT22;12897;50.812;4.430;2022-08-11T12:44:28;29.80;53.40
24800;DHT22;12897;50.812;4.430;2022-08-11T12:47:16;29.90;53.10
24800;DHT22;12897;50.812;4.430;2022-08-11T12:49:48;30.00;52.80
24800;DHT22;12897;50.812;4.430;2022-08-11T12:52:48;30.00;53.00
24800;DHT22;12897;50.812;4.430;2022-08-11T12:55:16;30.10;53.00
24800;DHT22;12897;50.812;4.430;2022-08-11T12:57:47;30.10;52.80
24800;DHT22;12897;50.812;4.430;2022-08-11T13:00:33;29.80;54.10
24800;DHT22;12897;50.812;4.430;2022-08-11T13:03:20;29.80;55.30
24800;DHT22;12897;50.812;4.430;2022-08-11T13:06:07;29.70;54.70
24800;DHT22;12897;50.812;4.430;2022-08-11T13:08:37;29.70;55.60
24800;DHT22;12897;50.812;4.430;2022-08-11T13:11:06;30.10;53.90
24800;DHT22;12897;50.812;4.430;2022-08-11T13:13:53;30.20;52.80
24800;DHT22;12897;50.812;4.430;2022-08-11T13:16:27;30.30;53.40
24800;DHT22;12897;50.812;4.430;2022-08-11T13:18:55;30.20;53.30
24800;DHT22;12897;50.812;4.430;2022-08-11T13:21:26;30.20;53.20
24800;DHT22;12897;50.812;4.430;2022-08-11T13:23:54;30.00;53.80
24800;DHT22;12897;50.812;4.430;2022-08-11T13:26:23;30.10;53.60
24800;DHT22;12897;50.812;4.430;2022-08-11T13:28:51;30.20;52.80
24800;DHT22;12897;50.812;4.430;2022-08-11T13:31:19;30.00;53.70
24800;DHT22;12897;50.812;4.430;2022-08-11T13:33:49;29.80;53.80
24800;DHT22;12897;50.812;4.430;2022-08-11T13:36:22;29.70;54.00
24800;DHT22;12897;50.812;4.430;2022-08-11T13:38:54;29.70;54.10
24800;DHT22;12897;50.812;4.430;2022-08-11T13:41:26;30.20;53.70
24800;DHT22;12897;50.812;4.430;2022-08-11T13:44:12;30.40;52.80
24800;DHT22;12897;50.812;4.430;2022-08-11T13:46:36;30.50;52.70
24800;DHT22;12897;50.812;4.430;2022-08-11T13:49:04;30.60;52.20
24800;DHT22;12897;50.812;4.430;2022-08-11T13:51:36;30.60;52.60
24800;DHT22;12897;50.812;4.430;2022-08-11T13:54:15;30.70;52.40
24800;DHT22;12897;50.812;4.430;2022-08-11T13:56:41;30.20;52.80
24800;DHT22;12897;50.812;4.430;2022-08-11T13:59:09;29.90;53.70
24800;DHT22;12897;50.812;4.430;2022-08-11T14:01:42;29.80;54.40
24800;DHT22;12897;50.812;4.430;2022-08-11T14:04:11;30.00;54.70
24800;DHT22;12897;50.812;4.430;2022-08-11T14:06:43;30.20;53.90
24800;DHT22;12897;50.812;4.430;2022-08-11T14:09:12;30.40;53.10
24800;DHT22;12897;50.812;4.430;2022-08-11T14:11:42;30.40;52.60
24800;DHT22;12897;50.812;4.430;2022-08-11T14:14:32;30.20;53.60
24800;DHT22;12897;50.812;4.430;2022-08-11T14:17:05;30.40;53.40
24800;DHT22;12897;50.812;4.430;2022-08-11T14:19:38;30.60;52.70
24800;DHT22;12897;50.812;4.430;2022-08-11T14:22:05;30.70;51.40
24800;DHT22;12897;50.812;4.430;2022-08-11T14:24:41;30.30;52.20
24800;DHT22;12897;50.812;4.430;2022-08-11T14:27:11;30.40;52.50
24800;DHT22;12897;50.812;4.430;2022-08-11T14:29:41;30.60;52.00
24800;DHT22;12897;50.812;4.430;2022-08-11T14:32:11;30.80;52.40
24800;DHT22;12897;50.812;4.430;2022-08-11T14:34:42;30.80;51.90
24800;DHT22;12897;50.812;4.430;2022-08-11T14:37:18;30.90;51.20
24800;DHT22;12897;50.812;4.430;2022-08-11T14:39:52;30.90;51.50
24800;DHT22;12897;50.812;4.430;2022-08-11T14:42:21;30.80;51.30
24800;DHT22;12897;50.812;4.430;2022-08-11T14:45:13;30.60;51.50
24800;DHT22;12897;50.812;4.430;2022-08-11T14:48:02;30.20;51.60
24800;DHT22;12897;50.812;4.430;2022-08-11T14:50:32;30.20;51.60
24800;DHT22;12897;50.812;4.430;2022-08-11T14:53:07;30.30;51.80
24800;DHT22;12897;50.812;4.430;2022-08-11T14:55:36;30.50;51.20
24800;DHT22;12897;50.812;4.430;2022-08-11T14:58:25;30.60;50.90
24800;DHT22;12897;50.812;4.430;2022-08-11T15:00:55;30.70;50.70
24800;DHT22;12897;50.812;4.430;2022-08-11T15:03:24;30.70;49.80
24800;DHT22;12897;50.812;4.430;2022-08-11T15:05:59;30.60;49.60
24800;DHT22;12897;50.812;4.430;2022-08-11T15:08:26;30.60;51.10
24800;DHT22;12897;50.812;4.430;2022-08-11T15:11:12;30.80;50.20
24800;DHT22;12897;50.812;4.430;2022-08-11T15:14:00;30.90;49.60
24800;DHT22;12897;50.812;4.430;2022-08-11T15:16:29;31.00;50.10
24800;DHT22;12897;50.812;4.430;2022-08-11T15:19:16;31.00;50.60
24800;DHT22;12897;50.812;4.430;2022-08-11T15:21:48;31.00;50.60
24800;DHT22;12897;50.812;4.430;2022-08-11T15:24:35;31.00;49.40
24800;DHT22;12897;50.812;4.430;2022-08-11T15:27:09;31.00;49.40
24800;DHT22;12897;50.812;4.430;2022-08-11T15:29:57;31.00;49.80
24800;DHT22;12897;50.812;4.430;2022-08-11T15:32:45;31.10;50.00
24800;DHT22;12897;50.812;4.430;2022-08-11T15:35:32;30.90;49.30
24800;DHT22;12897;50.812;4.430;2022-08-11T15:38:19;30.60;50.20
24800;DHT22;12897;50.812;4.430;2022-08-11T15:40:48;30.50;49.00
24800;DHT22;12897;50.812;4.430;2022-08-11T15:43:43;30.50;49.30
24800;DHT22;12897;50.812;4.430;2022-08-11T15:46:22;30.50;49.60
24800;DHT22;12897;50.812;4.430;2022-08-11T15:48:55;30.70;50.00
24800;DHT22;12897;50.812;4.430;2022-08-11T15:51:29;30.70;49.70
24800;DHT22;12897;50.812;4.430;2022-08-11T15:53:57;30.60;50.10
24800;DHT22;12897;50.812;4.430;2022-08-11T15:56:28;30.80;49.80
24800;DHT22;12897;50.812;4.430;2022-08-11T15:58:57;30.80;49.50
24800;DHT22;12897;50.812;4.430;2022-08-11T16:01:44;30.80;49.90
24800;DHT22;12897;50.812;4.430;2022-08-11T16:04:31;30.80;49.90
24800;DHT22;12897;50.812;4.430;2022-08-11T16:07:08;30.80;49.30
24800;DHT22;12897;50.812;4.430;2022-08-11T16:09:49;30.90;48.40
24800;DHT22;12897;50.812;4.430;2022-08-11T16:12:30;30.90;48.70
24800;DHT22;12897;50.812;4.430;2022-08-11T16:15:01;30.80;48.30
24800;DHT22;12897;50.812;4.430;2022-08-11T16:17:51;30.60;46.80
24800;DHT22;12897;50.812;4.430;2022-08-11T16:20:22;30.50;48.40
24800;DHT22;12897;50.812;4.430;2022-08-11T16:22:53;30.40;48.10
24800;DHT22;12897;50.812;4.430;2022-08-11T16:25:22;30.60;47.50
24800;DHT22;12897;50.812;4.430;2022-08-11T16:27:56;30.70;46.60
24800;DHT22;12897;50.812;4.430;2022-08-11T16:30:27;30.70;47.20
24800;DHT22;12897;50.812;4.430;2022-08-11T16:32:58;30.80;46.80
24800;DHT22;12897;50.812;4.430;2022-08-11T16:35:27;30.90;46.70
24800;DHT22;12897;50.812;4.430;2022-08-11T16:38:13;30.70;45.70
24800;DHT22;12897;50.812;4.430;2022-08-11T16:41:01;30.60;46.10
24800;DHT22;12897;50.812;4.430;2022-08-11T16:43:29;30.60;46.50
24800;DHT22;12897;50.812;4.430;2022-08-11T16:46:17;30.60;46.80
24800;DHT22;12897;50.812;4.430;2022-08-11T16:49:11;30.80;45.90
24800;DHT22;12897;50.812;4.430;2022-08-11T16:51:38;30.60;46.30
24800;DHT22;12897;50.812;4.430;2022-08-11T16:54:06;30.70;46.70
24800;DHT22;12897;50.812;4.430;2022-08-11T16:56:40;30.70;46.70
24800;DHT22;12897;50.812;4.430;2022-08-11T16:59:07;30.70;46.80
24800;DHT22;12897;50.812;4.430;2022-08-11T17:01:53;30.60;46.30
24800;DHT22;12897;50.812;4.430;2022-08-11T17:04:23;30.60;46.80
24800;DHT22;12897;50.812;4.430;2022-08-11T17:07:07;30.60;47.00
24800;DHT22;12897;50.812;4.430;2022-08-11T17:09:48;30.40;47.10
24800;DHT22;12897;50.812;4.430;2022-08-11T17:12:36;30.30;47.40
24800;DHT22;12897;50.812;4.430;2022-08-11T17:15:23;30.30;47.40
24800;DHT22;12897;50.812;4.430;2022-08-11T17:18:12;30.30;47.30
24800;DHT22;12897;50.812;4.430;2022-08-11T17:20:41;30.30;46.90
24800;DHT22;12897;50.812;4.430;2022-08-11T17:23:09;30.30;47.50
24800;DHT22;12897;50.812;4.430;2022-08-11T17:25:55;30.20;47.30
24800;DHT22;12897;50.812;4.430;2022-08-11T17:28:24;30.10;47.80
24800;DHT22;12897;50.812;4.430;2022-08-11T17:30:52;30.10;47.60
24800;DHT22;12897;50.812;4.430;2022-08-11T17:33:38;30.00;47.80
24800;DHT22;12897;50.812;4.430;2022-08-11T17:36:15;30.10;48.30
24800;DHT22;12897;50.812;4.430;2022-08-11T17:38:45;30.10;48.50
24800;DHT22;12897;50.812;4.430;2022-08-11T17:41:14;30.00;48.10
24800;DHT22;12897;50.812;4.430;2022-08-11T17:44:00;29.90;48.50
24800;DHT22;12897;50.812;4.430;2022-08-11T17:46:47;29.80;47.90
24800;DHT22;12897;50.812;4.430;2022-08-11T17:49:38;29.80;48.10
24800;DHT22;12897;50.812;4.430;2022-08-11T17:52:06;29.80;48.10
24800;DHT22;12897;50.812;4.430;2022-08-11T17:54:53;29.90;47.90
24800;DHT22;12897;50.812;4.430;2022-08-11T17:57:40;29.70;48.40
24800;DHT22;12897;50.812;4.430;2022-08-11T18:00:27;29.60;48.90
24800;DHT22;12897;50.812;4.430;2022-08-11T18:02:58;29.50;49.10
24800;DHT22;12897;50.812;4.430;2022-08-11T18:05:45;29.40;49.40
24800;DHT22;12897;50.812;4.430;2022-08-11T18:08:15;29.50;49.30
24800;DHT22;12897;50.812;4.430;2022-08-11T18:11:03;29.50;49.10
24800;DHT22;12897;50.812;4.430;2022-08-11T18:13:51;29.40;49.70
24800;DHT22;12897;50.812;4.430;2022-08-11T18:16:37;29.50;49.90
24800;DHT22;12897;50.812;4.430;2022-08-11T18:19:22;29.80;49.90
24800;DHT22;12897;50.812;4.430;2022-08-11T18:22:15;30.00;49.80
24800;DHT22;12897;50.812;4.430;2022-08-11T18:25:14;30.10;49.90
24800;DHT22;12897;50.812;4.430;2022-08-11T18:28:02;30.00;50.80
24800;DHT22;12897;50.812;4.430;2022-08-11T18:30:50;29.90;51.60
24800;DHT22;12897;50.812;4.430;2022-08-11T18:33:43;29.90;52.20
24800;DHT22;12897;50.812;4.430;2022-08-11T18:36:28;29.80;53.80
24800;DHT22;12897;50.812;4.430;2022-08-11T18:39:16;29.60;55.10
24800;DHT22;12897;50.812;4.430;2022-08-11T18:42:05;29.40;56.60
24800;DHT22;12897;50.812;4.430;2022-08-11T18:44:52;29.20;58.00
24800;DHT22;12897;50.812;4.430;2022-08-11T18:47:44;29.10;59.30
24800;DHT22;12897;50.812;4.430;2022-08-11T18:50:30;28.90;61.60
24800;DHT22;12897;50.812;4.430;2022-08-11T18:53:16;28.80;63.20
24800;DHT22;12897;50.812;4.430;2022-08-11T18:56:02;28.50;65.80
24800;DHT22;12897;50.812;4.430;2022-08-11T18:58:49;28.10;68.60
24800;DHT22;12897;50.812;4.430;2022-08-11T19:01:36;27.70;71.30
24800;DHT22;12897;50.812;4.430;2022-08-11T19:04:25;27.30;74.00
24800;DHT22;12897;50.812;4.430;2022-08-11T19:07:12;27.00;76.20
24800;DHT22;12897;50.812;4.430;2022-08-11T19:09:58;26.80;77.70
24800;DHT22;12897;50.812;4.430;2022-08-11T19:12:45;26.50;79.10
24800;DHT22;12897;50.812;4.430;2022-08-11T19:15:32;26.30;79.90
24800;DHT22;12897;50.812;4.430;2022-08-11T19:18:21;26.10;81.20
24800;DHT22;12897;50.812;4.430;2022-08-11T19:21:07;25.90;81.70
24800;DHT22;12897;50.812;4.430;2022-08-11T19:23:56;25.70;82.40
24800;DHT22;12897;50.812;4.430;2022-08-11T19:26:43;25.60;83.80
24800;DHT22;12897;50.812;4.430;2022-08-11T19:29:30;25.50;84.40
24800;DHT22;12897;50.812;4.430;2022-08-11T19:32:18;25.50;84.50
24800;DHT22;12897;50.812;4.430;2022-08-11T19:35:05;25.40;84.50
24800;DHT22;12897;50.812;4.430;2022-08-11T19:37:51;25.30;85.70
24800;DHT22;12897;50.812;4.430;2022-08-11T19:40:38;25.20;87.90
24800;DHT22;12897;50.812;4.430;2022-08-11T19:43:26;25.10;90.10
24800;DHT22;12897;50.812;4.430;2022-08-11T19:46:14;25.00;91.50
24800;DHT22;12897;50.812;4.430;2022-08-11T19:49:02;24.90;92.50
24800;DHT22;12897;50.812;4.430;2022-08-11T19:51:50;24.90;92.90
24800;DHT22;12897;50.812;4.430;2022-08-11T19:54:36;24.80;94.10
24800;DHT22;12897;50.812;4.430;2022-08-11T19:57:23;24.80;94.40
24800;DHT22;12897;50.812;4.430;2022-08-11T20:00:12;24.90;94.80
24800;DHT22;12897;50.812;4.430;2022-08-11T20:03:03;24.90;95.80
24800;DHT22;12897;50.812;4.430;2022-08-11T20:05:49;24.70;97.10
24800;DHT22;12897;50.812;4.430;2022-08-11T20:08:39;24.50;98.20